• Join FlightAware (Why Join?)
  • Login
  • US Flag 
08:28PM EDT


 

Airport Tracker/Info


-or-


 

Live Flight TrackerFlight Track Log ✈ UAL256 ✈ 28-Apr-2013 ✈ KDEN - KORD

Flight Track Log - Related Links

Times and Time Zones

All times are in EDT time to prevent confusion due to time zone crossing. See the UAL256 flight status page for this flight to view local times or setup timezone preferences in your user account.

Time Position Orientation Groundspeed Altitude Reporting Facility
EDT Latitude Longitude Course Direction KTS MPH feet Rate Location/Type
09:59PM 39.8833 -104.6000 67° East 176 203 6,300  Level Denver TRACON
10:00PM 39.8833 -104.5333 90° East 221 254 7,800 1,800 Climbing Denver TRACON
10:01PM 39.8667 -104.2159 90° East  Level FlightAware Approximate
10:01PM 39.8742 -104.4722 101° East 241 277 9,400  Level Denver Center
10:02PM 39.8667 -104.0652 90° East  Level FlightAware Approximate
10:02PM 39.8733 -104.3603 91° East 310 357 11,100  Level Denver Center
10:03PM 39.8667 -103.9146 90° East  Level FlightAware Approximate
10:03PM 39.8728 -104.2158 90° East 376 433 13,200  Level Denver Center
10:04PM 39.8726 -103.7655 67° East  Level FlightAware Approximate
10:04PM 39.8722 -104.0733 90° East 397 457 15,600  Level Denver Center
10:05PM 39.8711 -103.9106 90° East 418 481 18,300 2,400 Climbing Denver Center
10:06PM 39.8814 -103.7567 85° East 428 493 20,600 1,920 Climbing Denver Center
10:07PM 39.8994 -103.5933 82° East 422 486 22,300 1,440 Climbing Denver Center
10:08PM 39.9197 -103.4233 81° East 468 539 23,600 1,440 Climbing Denver Center
10:09PM 39.9378 -103.2492 82° East 480 552 25,300 1,560 Climbing Denver Center
10:10PM 39.9581 -103.0722 81° East 486 559 26,900 1,380 Climbing Denver Center
10:11PM 39.9772 -102.8936 82° East 493 567 28,200 1,560 Climbing Denver Center
10:12PM 39.9975 -102.7128 82° East 499 574 30,100 1,740 Climbing Denver Center
10:13PM 40.0150 -102.5386 82° East 495 570 31,800 1,800 Climbing Denver Center
10:14PM 40.0356 -102.3469 82° East 479 551 33,900 1,560 Climbing Denver Center
10:15PM 40.0533 -102.1836 82° East 476 548 35,100 1,260 Climbing Denver Center
10:16PM 40.0725 -101.9936 82° East 475 547 36,600 900 Climbing Denver Center
10:17PM 40.0878 -101.8306 83° East 473 544 37,000 180 Climbing Denver Center
10:18PM 40.1072 -101.6378 82° East 479 551 37,000  Level Denver Center
10:19PM 40.1225 -101.4711 83° East 484 557 37,000  Level Denver Center
10:20PM 40.1408 -101.2753 83° East 489 563 37,000  Level Denver Center
10:21PM 40.1564 -101.1106 83° East 482 555 37,000  Level Denver Center
10:22PM 40.1717 -100.9503 83° East 470 541 37,000  Level Denver Center
10:23PM 40.1889 -100.7614 83° East 472 543 37,000  Level Denver Center
10:24PM 40.2028 -100.6017 83° East 467 537 37,000  Level Denver Center
10:25PM 40.2067 -100.4125 88° East 467 537 37,000  Level Denver Center
10:26PM 40.2089 -100.2478 89° East 473 544 37,000  Level Denver Center
10:27PM 40.2119 -100.0569 89° East 472 543 37,000  Level Denver Center
10:28PM 40.2144 -99.8739 89° East 474 545 37,000  Level Denver Center
10:29PM 40.2158 -99.7014 89° East 476 548 37,000  Level Denver Center
10:30PM 40.2183 -99.5294 89° East 474 545 37,000  Level Denver Center
10:32PM 40.2192 -99.3583 90° East 471 542 37,000  Level Denver Center
10:33PM 40.2200 -99.1875 90° East 473 544 37,000  Level Denver Center
10:34PM 40.2217 -99.0153 89° East 475 547 37,000  Level Denver Center
10:35PM 40.2217 -98.8450 90° East 471 542 37,000  Level Denver Center
10:35PM 40.2231 -98.7778 88° East 473 544 37,000  Level Minneapolis Center
10:36PM 40.2231 -98.6058 90° East 474 545 37,000  Level Minneapolis Center
10:37PM 40.2225 -98.4025 90° East 470 541 37,000  Level Minneapolis Center
10:38PM 40.2222 -98.2339 90° East 467 537 37,000  Level Minneapolis Center
10:39PM 40.2217 -98.0625 90° East 471 542 37,000  Level Minneapolis Center
10:40PM 40.2208 -97.8906 90° East 474 545 37,000  Level Minneapolis Center
10:41PM 40.2197 -97.7181 90° East 475 547 37,100  Climbing Minneapolis Center
10:42PM 40.2186 -97.5444 90° East 476 548 37,000 -60 Descending Minneapolis Center
10:43PM 40.2167 -97.3719 91° East 476 548 37,000  Level Minneapolis Center
10:44PM 40.2156 -97.2086 90° East 473 544 37,000  Level Minneapolis Center
10:45PM 40.2128 -97.0375 91° East 472 543 37,000  Level Minneapolis Center
10:46PM 40.2108 -96.8333 91° East 472 543 37,000  Level Minneapolis Center
10:47PM 40.2078 -96.6633 91° East 469 540 37,000  Level Minneapolis Center
10:48PM 40.2056 -96.4922 91° East 471 542 37,000  Level Minneapolis Center
10:49PM 40.2022 -96.3203 91° East 473 544 37,000  Level Minneapolis Center
10:50PM 40.1997 -96.1489 91° East 474 545 37,000  Level Minneapolis Center
10:51PM 40.1986 -95.9758 90° East 477 549 37,000  Level Minneapolis Center
10:52PM 40.1986 -95.8006 90° East 483 556 37,000  Level Minneapolis Center
10:53PM 40.1967 -95.6281 91° East 479 551 37,000  Level Minneapolis Center
10:54PM 40.1964 -95.4561 90° East 476 548 37,000  Level Minneapolis Center
10:55PM 40.1950 -95.2850 91° East 474 545 37,000  Level Minneapolis Center
10:56PM 40.1928 -95.0797 91° East 473 544 37,000  Level Minneapolis Center
10:57PM 40.1900 -94.9086 91° East 473 544 37,000  Level Minneapolis Center
10:58PM 40.1881 -94.7364 91° East 474 545 37,000  Level Minneapolis Center
10:59PM 40.1858 -94.5650 91° East 473 544 37,000  Level Minneapolis Center
11:00PM 40.1831 -94.3861 91° East 472 543 37,000  Level Minneapolis Center
11:01PM 40.1789 -94.2139 92° East 473 544 37,000  Level Kansas City Center
11:02PM 40.1731 -94.0444 93° East 476 548 37,000  Level Kansas City Center
11:04PM 40.1694 -93.8744 92° East 475 547 37,000  Level Kansas City Center
11:05PM 40.1944 -93.7114 79° East 462 532 37,000  Level Kansas City Center
11:06PM 40.2222 -93.5472 77° East 464 534 37,000  Level Kansas City Center
11:07PM 40.2486 -93.3839 78° East 462 532 37,000  Level Kansas City Center
11:08PM 40.2803 -93.1889 78° East 460 529 37,000  Level Kansas City Center
11:09PM 40.3067 -93.0244 78° East 463 533 37,000  Level Kansas City Center
11:10PM 40.3344 -92.8564 78° East 465 535 37,000  Level Kansas City Center
11:11PM 40.3606 -92.6992 78° East 463 533 37,000  Level Kansas City Center
11:12PM 40.3861 -92.5247 79° East 468 539 37,000  Level Kansas City Center
11:13PM 40.4117 -92.3589 79° East 467 537 37,000  Level Kansas City Center
11:14PM 40.4383 -92.1842 79° East 467 537 37,000  Level Kansas City Center
11:15PM 40.4631 -92.0186 79° East 465 535 37,000 -600 Level Kansas City Center
11:16PM 40.4875 -91.8547 79° East 462 532 35,800 -1,260 Descending Kansas City Center
11:17PM 40.5111 -91.6894 79° East 463 533 34,500 -1,260 Descending Kansas City Center
11:17PM 40.5222 -91.6239 77° East 464 534 34,000 -1,080 Descending Chicago Center
11:18PM 40.5458 -91.4564 79° East 469 540 33,000 -540 Descending Chicago Center
11:19PM 40.5908 -91.2967 70° East 466 536 33,000  Level Chicago Center
11:20PM 40.6547 -91.1133 65° Northeast 464 534 33,000  Level Chicago Center
11:21PM 40.7064 -90.9581 66° East 463 533 33,000  Level Chicago Center
11:22PM 40.7586 -90.8036 66° East 461 531 33,000  Level Chicago Center
11:23PM 40.8117 -90.6478 66° East 463 533 33,000  Level Chicago Center
11:24PM 40.8628 -90.4925 66° East 460 529 33,000  Level Chicago Center
11:25PM 40.9161 -90.3375 65° Northeast 462 532 33,000  Level Chicago Center
11:26PM 40.9650 -90.1864 67° East 462 532 33,000 -420 Level Chicago Center
11:27PM 41.0192 -90.0217 66° East 463 533 32,200 -1,620 Descending Chicago Center
11:28PM 41.0708 -89.8642 66° East 462 532 29,800 -2,340 Descending Chicago Center
11:29PM 41.1225 -89.7061 66° East 463 533 27,500 -2,340 Descending Chicago Center
11:30PM 41.1769 -89.5469 66° East 470 541 25,100 -2,460 Descending Chicago Center
11:31PM 41.2414 -89.3914 61° Northeast 477 549 22,600 -2,520 Descending Chicago Center
11:32PM 41.3028 -89.2378 62° Northeast 469 540 20,100 -2,580 Descending Chicago Center
11:33PM 41.3656 -89.0792 62° Northeast 451 519 17,400 -2,640 Descending Chicago Center
11:34PM 41.4200 -88.9414 62° Northeast 426 490 14,800 -2,640 Descending Chicago Center
11:35PM 41.4736 -88.8064 62° Northeast 416 479 12,100 -1,920 Descending Chicago Center
11:36PM 41.5242 -88.6792 62° Northeast 391 450 11,000 -540 Descending Chicago Center
11:37PM 41.5736 -88.5550 62° Northeast 382 440 11,100  Climbing Chicago Center
11:38PM 41.6278 -88.4322 59° Northeast 385 443 11,000 -120 Descending Chicago Center
11:39PM 41.6942 -88.3214 51° Northeast 382 440 10,900 -120 Descending Chicago Center
11:40PM 41.7517 -88.2219 52° Northeast 334 384 10,800 -720 Descending Chicago Center
11:41PM 41.8042 -88.1447 48° Northeast 288 331 9,500 -1,500 Descending Chicago Center
11:42PM 41.8806 -88.1444 360° North 277 319 7,800 -1,740 Descending Chicago Center
11:43PM 41.9544 -88.1461 359° North 270 311 6,000 -1,860 Descending Chicago Center
11:44PM 42.0275 -88.1489 358° North 265 305 4,100 -1,140 Descending Chicago Center
11:45PM 42.0833 -88.1167 23° Northeast 242 278 3,900 -480 Descending Chicago TRACON
11:46PM 42.0833 -88.0500 90° East 216 249 3,200 -720 Descending Chicago TRACON